This is the latest recevied weather packets stored in our database for station/object OE3BCB-14. If no packets are shown the sender has not sent any weather packets the latest 10 day(s).
| Time | Temp. | Humidity | Pressure | Rain* | Wind** | Luminosity | Snow |
|---|---|---|---|---|---|---|---|
| 1778058636 | 33.33° C | 32% | 1009.5 hPa | - | - | 167 W/m² | - |
| 1778058334 | 33.33° C | 34% | 1009.6 hPa | - | - | 282 W/m² | - |
| 1778058032 | 33.33° C | 34% | 1009.6 hPa | - | - | 307 W/m² | - |
| 1778057729 | 33.33° C | 35% | 1009.8 hPa | - | - | 431 W/m² | - |
| 1778057427 | 32.22° C | 37% | 1009.7 hPa | - | - | 431 W/m² | - |
| 1778057124 | 30.56° C | 38% | 1009.6 hPa | - | - | 339 W/m² | - |
| 1778056822 | 28.89° C | 38% | 1009.7 hPa | - | - | 282 W/m² | - |
| 1778056520 | 27.78° C | 38% | 1009.6 hPa | - | - | 133 W/m² | - |
| 1778056217 | 27.78° C | 38% | 1009.6 hPa | - | - | 163 W/m² | - |
| 1778055915 | 27.78° C | 39% | 1009.6 hPa | - | - | 286 W/m² | - |
| 1778055612 | 28.89° C | 40% | 1009.8 hPa | - | - | 421 W/m² | - |
| 1778055310 | 27.78° C | 41% | 1009.8 hPa | - | - | 384 W/m² | - |
| 1778055007 | 28.33° C | 41% | 1009.9 hPa | - | - | 377 W/m² | - |
| 1778054705 | 27.78° C | 41% | 1009.9 hPa | - | - | 359 W/m² | - |
| 1778054403 | 27.78° C | 42% | 1010 hPa | - | - | 293 W/m² | - |
| 1778054100 | 27.78° C | 42% | 1010.1 hPa | - | - | 264 W/m² | - |
| 1778053798 | 26.11° C | 43% | 1010.1 hPa | - | - | 214 W/m² | - |
| 1778053495 | 24.44° C | 43% | 1010.1 hPa | - | - | 192 W/m² | - |
| 1778053193 | 24.44° C | 43% | 1010.3 hPa | - | - | 133 W/m² | - |
| 1778052588 | 23.89° C | 44% | 1010.3 hPa | - | - | 29 W/m² | - |
| 1778052286 | 23.89° C | 44% | 1010.3 hPa | - | - | 29 W/m² | - |
| 1778051983 | 23.89° C | 45% | 1010.4 hPa | - | - | 27 W/m² | - |
| 1778051681 | 23.89° C | 45% | 1010.4 hPa | - | - | 27 W/m² | - |
| 1778051378 | 23.33° C | 45% | 1010.4 hPa | - | - | 27 W/m² | - |
| 1778051076 | 23.33° C | 45% | 1010.5 hPa | - | - | 28 W/m² | - |
* Rain since midnight (hover to see other rain measurements)
** Current wind speed in m/s (hover to see current wind gust speed)